TAM8054 SBGR-SCEL
Flight info
| Callsign | TAM8054 |
|---|---|
| Flight time | N/A |
| Altitude | 32000 |
| Route | UBSOD UZ38 ARTUT UM400 SIKOB/N0464F340 UM400 CBA UZ105 UMKAL UMKAL7C |
| Aircraft | A320/M-SDE3FGHIRWY/LB1 |
Departure
| Time | 2026-05-01 13:55 |
|---|---|
| Airport | São Paulo/Guarulhos–Governor André Franco Montoro International Airport (SBGR) |
Arrival
| Time | N/A |
|---|---|
| Airport | Comodoro Arturo Merino Benítez International Airport (SCEL) |
| Time | Latitude | Longitude | Altitude | Speed | Heading |
|---|---|---|---|---|---|
| 2026-05-01 13:37 | -23.42678 | -46.47684 | 2465 ft | 0 kts | 254° |
| 2026-05-01 13:45 | -23.42676 | -46.47676 | 2464 ft | 2 kts | 252° |
| 2026-05-01 13:45 | -23.42671 | -46.47659 | 2465 ft | 2 kts | 253° |
| 2026-05-01 13:46 | -23.42666 | -46.47642 | 2464 ft | 2 kts | 253° |
| 2026-05-01 13:46 | -23.42662 | -46.47625 | 2466 ft | 2 kts | 253° |
| 2026-05-01 13:46 | -23.42657 | -46.47608 | 2466 ft | 2 kts | 251° |
| 2026-05-01 13:46 | -23.42651 | -46.47591 | 2464 ft | 2 kts | 247° |
| 2026-05-01 13:47 | -23.42644 | -46.47574 | 2466 ft | 2 kts | 216° |
| 2026-05-01 13:47 | -23.42632 | -46.47570 | 2464 ft | 1 kts | 159° |
| 2026-05-01 13:47 | -23.42631 | -46.47571 | 2464 ft | 0 kts | 162° |
| 2026-05-01 13:48 | -23.42639 | -46.47568 | 2470 ft | 6 kts | 161° |
| 2026-05-01 13:49 | -23.42680 | -46.47555 | 2464 ft | 5 kts | 163° |
| 2026-05-01 13:49 | -23.42708 | -46.47546 | 2464 ft | 3 kts | 165° |
| 2026-05-01 13:49 | -23.42749 | -46.47534 | 2464 ft | 10 kts | 165° |
| 2026-05-01 13:49 | -23.42853 | -46.47500 | 2464 ft | 17 kts | 161° |
| 2026-05-01 13:50 | -23.42967 | -46.47452 | 2466 ft | 17 kts | 162° |
| 2026-05-01 13:50 | -23.43034 | -46.47517 | 2464 ft | 15 kts | 254° |
| 2026-05-01 13:50 | -23.43065 | -46.47632 | 2464 ft | 18 kts | 252° |
| 2026-05-01 13:50 | -23.43107 | -46.47789 | 2466 ft | 22 kts | 253° |
| 2026-05-01 13:51 | -23.43151 | -46.47949 | 2466 ft | 22 kts | 254° |
| 2026-05-01 13:51 | -23.43192 | -46.48104 | 2470 ft | 21 kts | 254° |
| 2026-05-01 13:51 | -23.43232 | -46.48250 | 2470 ft | 20 kts | 253° |
| 2026-05-01 13:51 | -23.43307 | -46.48351 | 2471 ft | 19 kts | 189° |
| 2026-05-01 13:52 | -23.43415 | -46.48301 | 2461 ft | 14 kts | 107° |
| 2026-05-01 13:52 | -23.43404 | -46.48242 | 2461 ft | 0 kts | 73° |
| 2026-05-01 13:54 | -23.43382 | -46.48164 | 2464 ft | 36 kts | 73° |
| 2026-05-01 13:54 | -23.43244 | -46.47651 | 2460 ft | 103 kts | 73° |
| 2026-05-01 13:55 | -23.42988 | -46.46709 | 2467 ft | 154 kts | 73° |
| 2026-05-01 13:55 | -23.42648 | -46.45463 | 2702 ft | 180 kts | 73° |
| 2026-05-01 13:55 | -23.42282 | -46.44127 | 3355 ft | 187 kts | 74° |
| 2026-05-01 13:55 | -23.41895 | -46.42753 | 3852 ft | 195 kts | 72° |
| 2026-05-01 13:56 | -23.41465 | -46.41297 | 4001 ft | 215 kts | 72° |
| 2026-05-01 13:56 | -23.40981 | -46.39667 | 4185 ft | 239 kts | 72° |
| 2026-05-01 13:56 | -23.40458 | -46.37902 | 4511 ft | 259 kts | 71° |
| 2026-05-01 13:56 | -23.40176 | -46.35896 | 5148 ft | 269 kts | 95° |
| 2026-05-01 13:57 | -23.40584 | -46.34283 | 5697 ft | 276 kts | 109° |
| 2026-05-01 13:57 | -23.41026 | -46.32969 | 6155 ft | 280 kts | 108° |
| 2026-05-01 13:57 | -23.41908 | -46.30310 | 7033 ft | 286 kts | 108° |
| 2026-05-01 13:57 | -23.42597 | -46.28212 | 7718 ft | 291 kts | 108° |
| 2026-05-01 13:58 | -23.43498 | -46.26267 | 8348 ft | 296 kts | 131° |
| 2026-05-01 13:58 | -23.45178 | -46.25001 | 8939 ft | 299 kts | 164° |
| 2026-05-01 13:58 | -23.47228 | -46.24805 | 9647 ft | 298 kts | 186° |
| 2026-05-01 13:58 | -23.49215 | -46.25111 | 10336 ft | 298 kts | 193° |
| 2026-05-01 13:59 | -23.51242 | -46.25787 | 10579 ft | 316 kts | 207° |
| 2026-05-01 13:59 | -23.53148 | -46.27117 | 10688 ft | 336 kts | 220° |
| 2026-05-01 13:59 | -23.54854 | -46.28917 | 10843 ft | 352 kts | 231° |
| 2026-05-01 13:59 | -23.56241 | -46.31149 | 11268 ft | 359 kts | 244° |
| 2026-05-01 14:00 | -23.57113 | -46.33705 | 11793 ft | 361 kts | 257° |
| 2026-05-01 14:00 | -23.57684 | -46.36381 | 12342 ft | 364 kts | 258° |
| 2026-05-01 14:00 | -23.58232 | -46.39087 | 12906 ft | 367 kts | 258° |
| 2026-05-01 14:00 | -23.58768 | -46.41816 | 13446 ft | 370 kts | 258° |
| 2026-05-01 14:01 | -23.59298 | -46.44535 | 13981 ft | 373 kts | 258° |
| 2026-05-01 14:01 | -23.59840 | -46.47313 | 14445 ft | 376 kts | 258° |
| 2026-05-01 14:01 | -23.60391 | -46.50117 | 14952 ft | 378 kts | 258° |
| 2026-05-01 14:01 | -23.60935 | -46.52931 | 15429 ft | 380 kts | 259° |
| 2026-05-01 14:02 | -23.61411 | -46.55775 | 15894 ft | 382 kts | 261° |
| 2026-05-01 14:02 | -23.61834 | -46.58641 | 16347 ft | 384 kts | 262° |
| 2026-05-01 14:02 | -23.62227 | -46.61491 | 16798 ft | 386 kts | 262° |
| 2026-05-01 14:02 | -23.62760 | -46.64373 | 17237 ft | 389 kts | 254° |
| 2026-05-01 14:03 | -23.63762 | -46.67124 | 17681 ft | 392 kts | 243° |
| 2026-05-01 14:03 | -23.65178 | -46.69672 | 18107 ft | 395 kts | 239° |
| 2026-05-01 14:03 | -23.66655 | -46.72197 | 18528 ft | 397 kts | 239° |
| 2026-05-01 14:03 | -23.68150 | -46.74758 | 18886 ft | 400 kts | 239° |
| 2026-05-01 14:04 | -23.69709 | -46.77280 | 19236 ft | 403 kts | 233° |
| 2026-05-01 14:04 | -23.71610 | -46.79480 | 19577 ft | 407 kts | 223° |
| 2026-05-01 14:04 | -23.73905 | -46.81310 | 19934 ft | 411 kts | 213° |
| 2026-05-01 14:04 | -23.75586 | -46.82367 | 20160 ft | 413 kts | 212° |
| 2026-05-01 14:05 | -23.78898 | -46.84445 | 20609 ft | 416 kts | 212° |
| 2026-05-01 14:05 | -23.81412 | -46.86030 | 20934 ft | 418 kts | 212° |
| 2026-05-01 14:05 | -23.83938 | -46.87626 | 21276 ft | 420 kts | 212° |
| 2026-05-01 14:05 | -23.86473 | -46.89232 | 21605 ft | 422 kts | 212° |
| 2026-05-01 14:06 | -23.88989 | -46.90827 | 21918 ft | 425 kts | 212° |
| 2026-05-01 14:06 | -23.91550 | -46.92450 | 22251 ft | 427 kts | 212° |
| 2026-05-01 14:06 | -23.94126 | -46.94081 | 22585 ft | 429 kts | 212° |
| 2026-05-01 14:06 | -23.96718 | -46.95722 | 22910 ft | 431 kts | 212° |
| 2026-05-01 14:07 | -23.99322 | -46.97371 | 23229 ft | 434 kts | 212° |
| 2026-05-01 14:07 | -24.01937 | -46.99027 | 23539 ft | 436 kts | 212° |
| 2026-05-01 14:07 | -24.04570 | -47.00693 | 23833 ft | 438 kts | 213° |
| 2026-05-01 14:08 | -24.09825 | -47.04028 | 24353 ft | 441 kts | 213° |
| 2026-05-01 14:08 | -24.12481 | -47.05713 | 24614 ft | 442 kts | 213° |
| 2026-05-01 14:08 | -24.15145 | -47.07408 | 24879 ft | 443 kts | 213° |
| 2026-05-01 14:08 | -24.17818 | -47.09106 | 25136 ft | 444 kts | 213° |
| 2026-05-01 14:09 | -24.20492 | -47.10803 | 25409 ft | 445 kts | 213° |
| 2026-05-01 14:09 | -24.23172 | -47.12503 | 25694 ft | 446 kts | 213° |
| 2026-05-01 14:09 | -24.25757 | -47.14145 | 25950 ft | 447 kts | 213° |
| 2026-05-01 14:09 | -24.28399 | -47.15867 | 26210 ft | 448 kts | 215° |
| 2026-05-01 14:10 | -24.31043 | -47.17676 | 26483 ft | 448 kts | 216° |
| 2026-05-01 14:10 | -24.33671 | -47.19524 | 26752 ft | 449 kts | 216° |
| 2026-05-01 14:10 | -24.36296 | -47.21387 | 27018 ft | 450 kts | 216° |
| 2026-05-01 14:10 | -24.38925 | -47.23251 | 27277 ft | 451 kts | 216° |
| 2026-05-01 14:11 | -24.41571 | -47.25115 | 27529 ft | 452 kts | 216° |
| 2026-05-01 14:11 | -24.46890 | -47.28821 | 28010 ft | 454 kts | 216° |
| 2026-05-01 14:11 | -24.49562 | -47.30676 | 28246 ft | 455 kts | 216° |
| 2026-05-01 14:12 | -24.52206 | -47.32514 | 28470 ft | 456 kts | 216° |
| 2026-05-01 14:12 | -24.54884 | -47.34380 | 28694 ft | 457 kts | 217° |
| 2026-05-01 14:12 | -24.57570 | -47.36254 | 28929 ft | 458 kts | 217° |
| 2026-05-01 14:12 | -24.60267 | -47.38136 | 29178 ft | 458 kts | 217° |
| 2026-05-01 14:13 | -24.62957 | -47.40014 | 29497 ft | 456 kts | 217° |
| 2026-05-01 14:13 | -24.64728 | -47.41249 | 29734 ft | 455 kts | 217° |
| 2026-05-01 14:13 | -24.68262 | -47.43716 | 30177 ft | 453 kts | 217° |
| 2026-05-01 14:13 | -24.70918 | -47.45571 | 30475 ft | 451 kts | 217° |
| 2026-05-01 14:14 | -24.73563 | -47.47417 | 30763 ft | 450 kts | 217° |
| 2026-05-01 14:14 | -24.76199 | -47.49259 | 31030 ft | 448 kts | 217° |
| 2026-05-01 14:14 | -24.78827 | -47.51100 | 31293 ft | 447 kts | 218° |
| 2026-05-01 14:14 | -24.81450 | -47.52940 | 31547 ft | 447 kts | 218° |
| 2026-05-01 14:15 | -24.84070 | -47.54775 | 31812 ft | 446 kts | 218° |
| 2026-05-01 14:15 | -24.86647 | -47.56582 | 32078 ft | 445 kts | 218° |
| 2026-05-01 14:15 | -24.89252 | -47.58411 | 32181 ft | 443 kts | 218° |
| 2026-05-01 14:15 | -24.91847 | -47.60234 | 32197 ft | 442 kts | 218° |
| 2026-05-01 14:16 | -24.97026 | -47.63870 | 32197 ft | 441 kts | 218° |
| 2026-05-01 14:16 | -25.02192 | -47.67497 | 32197 ft | 440 kts | 218° |
| 2026-05-01 14:17 | -25.07353 | -47.71140 | 32199 ft | 440 kts | 218° |
| 2026-05-01 14:17 | -25.12467 | -47.74757 | 32197 ft | 440 kts | 218° |
| 2026-05-01 14:18 | -25.17630 | -47.78392 | 32200 ft | 440 kts | 218° |
| 2026-05-01 14:18 | -25.21918 | -47.81417 | 32202 ft | 440 kts | 218° |
| 2026-05-01 14:19 | -25.27948 | -47.85675 | 32205 ft | 440 kts | 219° |
| 2026-05-01 14:19 | -25.33071 | -47.89295 | 32204 ft | 440 kts | 219° |
| 2026-05-01 14:20 | -25.40795 | -47.94768 | 32203 ft | 439 kts | 219° |
| 2026-05-01 14:21 | -25.45937 | -47.98419 | 32198 ft | 439 kts | 219° |
| 2026-05-01 14:21 | -25.51041 | -48.02049 | 32196 ft | 439 kts | 219° |
| 2026-05-01 14:22 | -25.58736 | -48.07548 | 32195 ft | 437 kts | 222° |
| 2026-05-01 14:22 | -25.63039 | -48.12110 | 32194 ft | 424 kts | 238° |
| 2026-05-01 14:23 | -25.65924 | -48.17704 | 32192 ft | 416 kts | 249° |
| 2026-05-01 14:23 | -25.67730 | -48.21967 | 32192 ft | 417 kts | 249° |
| 2026-05-01 14:24 | -25.70184 | -48.27757 | 32193 ft | 417 kts | 249° |
| 2026-05-01 14:24 | -25.72632 | -48.33543 | 32194 ft | 417 kts | 249° |
| 2026-05-01 14:25 | -25.75089 | -48.39364 | 32190 ft | 417 kts | 249° |
| 2026-05-01 14:25 | -25.77543 | -48.45186 | 32194 ft | 416 kts | 249° |
| 2026-05-01 14:26 | -25.81201 | -48.53875 | 32193 ft | 416 kts | 249° |
| 2026-05-01 14:27 | -25.83646 | -48.59698 | 32182 ft | 416 kts | 249° |
| 2026-05-01 14:27 | -25.86086 | -48.65521 | 32189 ft | 416 kts | 249° |
| 2026-05-01 14:28 | -25.89750 | -48.74249 | 32194 ft | 416 kts | 249° |
| 2026-05-01 14:28 | -25.92170 | -48.80025 | 32190 ft | 415 kts | 249° |
| 2026-05-01 14:29 | -25.94599 | -48.85846 | 32198 ft | 415 kts | 249° |
| 2026-05-01 14:30 | -25.99447 | -48.97503 | 32195 ft | 415 kts | 249° |
| 2026-05-01 14:31 | -26.03070 | -49.06203 | 32203 ft | 415 kts | 249° |
| 2026-05-01 14:31 | -26.05489 | -49.12030 | 32212 ft | 415 kts | 249° |
| 2026-05-01 14:32 | -26.07899 | -49.17865 | 32221 ft | 415 kts | 249° |
| 2026-05-01 14:32 | -26.10308 | -49.23699 | 32226 ft | 415 kts | 250° |
| 2026-05-01 14:33 | -26.12696 | -49.29484 | 32230 ft | 414 kts | 249° |
| 2026-05-01 14:33 | -26.15113 | -49.35301 | 32230 ft | 414 kts | 249° |
| 2026-05-01 14:34 | -26.17526 | -49.41113 | 32227 ft | 413 kts | 250° |
| 2026-05-01 14:34 | -26.19923 | -49.46925 | 32225 ft | 413 kts | 250° |
| 2026-05-01 14:35 | -26.22295 | -49.52692 | 32225 ft | 412 kts | 250° |
| 2026-05-01 14:35 | -26.24679 | -49.58498 | 32230 ft | 412 kts | 250° |
| 2026-05-01 14:36 | -26.27052 | -49.64304 | 32227 ft | 412 kts | 250° |
| 2026-05-01 14:36 | -26.29393 | -49.70068 | 32226 ft | 411 kts | 250° |
| 2026-05-01 14:37 | -26.31743 | -49.75871 | 32223 ft | 411 kts | 250° |
| 2026-05-01 14:37 | -26.34087 | -49.81673 | 32218 ft | 410 kts | 250° |
| 2026-05-01 14:38 | -26.36456 | -49.87465 | 32213 ft | 410 kts | 250° |
| 2026-05-01 14:38 | -26.38743 | -49.93042 | 32210 ft | 410 kts | 250° |
| 2026-05-01 14:39 | -26.41111 | -49.98829 | 32219 ft | 410 kts | 250° |
| 2026-05-01 14:39 | -26.43471 | -50.04621 | 32218 ft | 410 kts | 250° |
| 2026-05-01 14:40 | -26.45825 | -50.10412 | 32215 ft | 410 kts | 250° |
| 2026-05-01 14:40 | -26.48157 | -50.16159 | 32221 ft | 409 kts | 250° |
| 2026-05-01 14:41 | -26.50514 | -50.21945 | 32224 ft | 409 kts | 250° |
| 2026-05-01 14:41 | -26.52863 | -50.27726 | 32224 ft | 409 kts | 250° |